sensor_id;sensor_type;location;lat;lon;timestamp;P1;durP1;ratioP1;P2;durP2;ratioP2
705;SDS011;21234;48.690;9.016;2023-12-20T00:01:59;1.20;;;0.90;;
705;SDS011;21234;48.690;9.016;2023-12-20T00:04:25;1.37;;;1.13;;
705;SDS011;21234;48.690;9.016;2023-12-20T00:06:52;0.70;;;0.70;;
705;SDS011;21234;48.690;9.016;2023-12-20T00:09:19;3.07;;;1.07;;
705;SDS011;21234;48.690;9.016;2023-12-20T00:11:45;1.20;;;0.70;;
705;SDS011;21234;48.690;9.016;2023-12-20T00:14:12;1.27;;;1.03;;
705;SDS011;21234;48.690;9.016;2023-12-20T00:16:40;1.60;;;1.27;;
705;SDS011;21234;48.690;9.016;2023-12-20T00:19:06;1.20;;;0.77;;
705;SDS011;21234;48.690;9.016;2023-12-20T00:21:33;0.83;;;0.50;;
705;SDS011;21234;48.690;9.016;2023-12-20T00:24:00;0.87;;;0.50;;
705;SDS011;21234;48.690;9.016;2023-12-20T00:26:26;1.43;;;0.67;;
705;SDS011;21234;48.690;9.016;2023-12-20T00:28:54;1.80;;;1.27;;
705;SDS011;21234;48.690;9.016;2023-12-20T00:31:20;0.80;;;0.80;;
705;SDS011;21234;48.690;9.016;2023-12-20T00:33:48;1.00;;;0.70;;
705;SDS011;21234;48.690;9.016;2023-12-20T00:36:15;1.67;;;1.00;;
705;SDS011;21234;48.690;9.016;2023-12-20T00:38:41;0.77;;;0.77;;
705;SDS011;21234;48.690;9.016;2023-12-20T00:41:08;1.27;;;0.70;;
705;SDS011;21234;48.690;9.016;2023-12-20T00:43:35;0.63;;;0.50;;
705;SDS011;21234;48.690;9.016;2023-12-20T00:46:01;1.47;;;1.03;;
705;SDS011;21234;48.690;9.016;2023-12-20T00:48:27;1.50;;;0.97;;
705;SDS011;21234;48.690;9.016;2023-12-20T00:50:56;0.73;;;0.57;;
705;SDS011;21234;48.690;9.016;2023-12-20T00:53:23;0.87;;;0.40;;
705;SDS011;21234;48.690;9.016;2023-12-20T00:55:50;0.77;;;0.63;;
705;SDS011;21234;48.690;9.016;2023-12-20T00:58:17;1.07;;;0.90;;
705;SDS011;21234;48.690;9.016;2023-12-20T01:00:43;1.70;;;0.70;;
705;SDS011;21234;48.690;9.016;2023-12-20T01:03:10;0.73;;;0.73;;
705;SDS011;21234;48.690;9.016;2023-12-20T01:05:36;0.87;;;0.60;;
705;SDS011;21234;48.690;9.016;2023-12-20T01:08:04;0.60;;;0.40;;
705;SDS011;21234;48.690;9.016;2023-12-20T01:10:31;0.73;;;0.73;;
705;SDS011;21234;48.690;9.016;2023-12-20T01:12:58;0.80;;;0.63;;
705;SDS011;21234;48.690;9.016;2023-12-20T01:15:24;0.90;;;0.67;;
705;SDS011;21234;48.690;9.016;2023-12-20T01:17:51;0.83;;;0.80;;
705;SDS011;21234;48.690;9.016;2023-12-20T01:20:18;1.03;;;0.60;;
705;SDS011;21234;48.690;9.016;2023-12-20T01:22:45;0.60;;;0.60;;
705;SDS011;21234;48.690;9.016;2023-12-20T01:25:13;1.07;;;0.70;;
705;SDS011;21234;48.690;9.016;2023-12-20T01:27:40;0.70;;;0.70;;
705;SDS011;21234;48.690;9.016;2023-12-20T01:30:07;0.83;;;0.50;;
705;SDS011;21234;48.690;9.016;2023-12-20T01:32:34;1.10;;;1.00;;
705;SDS011;21234;48.690;9.016;2023-12-20T01:35:01;0.80;;;0.77;;
705;SDS011;21234;48.690;9.016;2023-12-20T01:37:26;1.47;;;0.70;;
705;SDS011;21234;48.690;9.016;2023-12-20T01:39:54;0.70;;;0.70;;
705;SDS011;21234;48.690;9.016;2023-12-20T01:42:22;1.83;;;0.70;;
705;SDS011;21234;48.690;9.016;2023-12-20T01:44:49;0.87;;;0.53;;
705;SDS011;21234;48.690;9.016;2023-12-20T01:47:15;1.90;;;0.67;;
705;SDS011;21234;48.690;9.016;2023-12-20T01:49:43;1.23;;;0.70;;
705;SDS011;21234;48.690;9.016;2023-12-20T01:52:10;0.83;;;0.63;;
705;SDS011;21234;48.690;9.016;2023-12-20T01:54:37;0.77;;;0.47;;
705;SDS011;21234;48.690;9.016;2023-12-20T01:57:05;0.60;;;0.50;;
705;SDS011;21234;48.690;9.016;2023-12-20T01:59:34;1.93;;;1.03;;
705;SDS011;21234;48.690;9.016;2023-12-20T02:02:01;0.60;;;0.50;;
705;SDS011;21234;48.690;9.016;2023-12-20T02:04:29;0.80;;;0.40;;
705;SDS011;21234;48.690;9.016;2023-12-20T02:06:56;0.60;;;0.40;;
705;SDS011;21234;48.690;9.016;2023-12-20T02:09:25;0.60;;;0.60;;
705;SDS011;21234;48.690;9.016;2023-12-20T02:11:52;0.50;;;0.43;;
705;SDS011;21234;48.690;9.016;2023-12-20T02:14:20;0.70;;;0.50;;
705;SDS011;21234;48.690;9.016;2023-12-20T02:16:48;0.60;;;0.53;;
705;SDS011;21234;48.690;9.016;2023-12-20T02:19:15;0.60;;;0.40;;
705;SDS011;21234;48.690;9.016;2023-12-20T02:21:44;0.67;;;0.50;;
705;SDS011;21234;48.690;9.016;2023-12-20T02:24:11;0.80;;;0.30;;
705;SDS011;21234;48.690;9.016;2023-12-20T02:26:38;0.60;;;0.50;;
705;SDS011;21234;48.690;9.016;2023-12-20T02:29:04;0.50;;;0.40;;
705;SDS011;21234;48.690;9.016;2023-12-20T02:31:31;0.47;;;0.40;;
705;SDS011;21234;48.690;9.016;2023-12-20T02:33:58;0.40;;;0.37;;
705;SDS011;21234;48.690;9.016;2023-12-20T02:36:24;0.63;;;0.37;;
705;SDS011;21234;48.690;9.016;2023-12-20T02:38:52;0.47;;;0.30;;
705;SDS011;21234;48.690;9.016;2023-12-20T02:41:19;0.40;;;0.27;;
705;SDS011;21234;48.690;9.016;2023-12-20T02:43:45;0.80;;;0.47;;
705;SDS011;21234;48.690;9.016;2023-12-20T02:46:13;1.27;;;0.60;;
705;SDS011;21234;48.690;9.016;2023-12-20T02:48:42;0.40;;;0.30;;
705;SDS011;21234;48.690;9.016;2023-12-20T02:51:08;0.40;;;0.20;;
705;SDS011;21234;48.690;9.016;2023-12-20T02:53:38;0.60;;;0.30;;
705;SDS011;21234;48.690;9.016;2023-12-20T02:56:06;0.50;;;0.30;;
705;SDS011;21234;48.690;9.016;2023-12-20T02:58:33;0.40;;;0.30;;
705;SDS011;21234;48.690;9.016;2023-12-20T03:00:59;0.60;;;0.30;;
705;SDS011;21234;48.690;9.016;2023-12-20T03:03:26;0.50;;;0.30;;
705;SDS011;21234;48.690;9.016;2023-12-20T03:05:53;0.40;;;0.20;;
705;SDS011;21234;48.690;9.016;2023-12-20T03:08:19;0.97;;;0.30;;
705;SDS011;21234;48.690;9.016;2023-12-20T03:10:46;0.40;;;0.20;;
705;SDS011;21234;48.690;9.016;2023-12-20T03:13:14;0.50;;;0.20;;
705;SDS011;21234;48.690;9.016;2023-12-20T03:15:41;0.47;;;0.20;;
705;SDS011;21234;48.690;9.016;2023-12-20T03:18:07;0.30;;;0.20;;
705;SDS011;21234;48.690;9.016;2023-12-20T03:20:34;0.30;;;0.20;;
705;SDS011;21234;48.690;9.016;2023-12-20T03:23:00;0.40;;;0.30;;
705;SDS011;21234;48.690;9.016;2023-12-20T03:25:27;0.40;;;0.20;;
705;SDS011;21234;48.690;9.016;2023-12-20T03:27:54;0.40;;;0.30;;
705;SDS011;21234;48.690;9.016;2023-12-20T03:30:22;0.50;;;0.20;;
705;SDS011;21234;48.690;9.016;2023-12-20T03:32:48;0.37;;;0.20;;
705;SDS011;21234;48.690;9.016;2023-12-20T03:35:15;0.60;;;0.30;;
705;SDS011;21234;48.690;9.016;2023-12-20T03:37:42;2.27;;;0.23;;
705;SDS011;21234;48.690;9.016;2023-12-20T03:40:09;0.40;;;0.30;;
705;SDS011;21234;48.690;9.016;2023-12-20T03:42:36;0.40;;;0.30;;
705;SDS011;21234;48.690;9.016;2023-12-20T03:45:03;0.40;;;0.30;;
705;SDS011;21234;48.690;9.016;2023-12-20T03:47:31;0.40;;;0.20;;
705;SDS011;21234;48.690;9.016;2023-12-20T03:49:58;0.70;;;0.30;;
705;SDS011;21234;48.690;9.016;2023-12-20T03:52:24;0.40;;;0.20;;
705;SDS011;21234;48.690;9.016;2023-12-20T03:54:51;1.10;;;0.20;;
705;SDS011;21234;48.690;9.016;2023-12-20T03:57:18;0.37;;;0.20;;
705;SDS011;21234;48.690;9.016;2023-12-20T03:59:45;0.70;;;0.20;;
705;SDS011;21234;48.690;9.016;2023-12-20T04:02:12;1.53;;;0.30;;
705;SDS011;21234;48.690;9.016;2023-12-20T04:04:40;1.17;;;0.30;;
705;SDS011;21234;48.690;9.016;2023-12-20T04:07:05;0.37;;;0.20;;
705;SDS011;21234;48.690;9.016;2023-12-20T04:09:32;0.50;;;0.33;;
705;SDS011;21234;48.690;9.016;2023-12-20T04:11:59;0.70;;;0.30;;
705;SDS011;21234;48.690;9.016;2023-12-20T04:14:25;0.70;;;0.30;;
705;SDS011;21234;48.690;9.016;2023-12-20T04:16:52;0.40;;;0.20;;
705;SDS011;21234;48.690;9.016;2023-12-20T04:19:19;1.20;;;0.50;;
705;SDS011;21234;48.690;9.016;2023-12-20T04:21:47;0.50;;;0.20;;
705;SDS011;21234;48.690;9.016;2023-12-20T04:24:14;0.40;;;0.30;;
705;SDS011;21234;48.690;9.016;2023-12-20T04:26:40;0.40;;;0.20;;
705;SDS011;21234;48.690;9.016;2023-12-20T04:29:07;0.80;;;0.30;;
705;SDS011;21234;48.690;9.016;2023-12-20T04:31:34;0.60;;;0.27;;
705;SDS011;21234;48.690;9.016;2023-12-20T04:34:00;0.30;;;0.20;;
705;SDS011;21234;48.690;9.016;2023-12-20T04:36:27;0.60;;;0.20;;
705;SDS011;21234;48.690;9.016;2023-12-20T04:38:56;2.20;;;0.93;;
705;SDS011;21234;48.690;9.016;2023-12-20T04:41:23;0.40;;;0.20;;
705;SDS011;21234;48.690;9.016;2023-12-20T04:43:49;0.33;;;0.20;;
705;SDS011;21234;48.690;9.016;2023-12-20T04:46:16;0.40;;;0.20;;
705;SDS011;21234;48.690;9.016;2023-12-20T04:48:43;0.40;;;0.20;;
705;SDS011;21234;48.690;9.016;2023-12-20T04:51:09;0.40;;;0.20;;
705;SDS011;21234;48.690;9.016;2023-12-20T04:53:36;0.40;;;0.23;;
705;SDS011;21234;48.690;9.016;2023-12-20T04:56:04;0.77;;;0.30;;
705;SDS011;21234;48.690;9.016;2023-12-20T04:58:31;0.60;;;0.40;;
705;SDS011;21234;48.690;9.016;2023-12-20T05:00:58;0.40;;;0.30;;
705;SDS011;21234;48.690;9.016;2023-12-20T05:03:25;0.40;;;0.20;;
705;SDS011;21234;48.690;9.016;2023-12-20T05:05:51;0.40;;;0.20;;
705;SDS011;21234;48.690;9.016;2023-12-20T05:08:18;0.40;;;0.30;;
705;SDS011;21234;48.690;9.016;2023-12-20T05:10:45;0.40;;;0.20;;
705;SDS011;21234;48.690;9.016;2023-12-20T05:13:13;0.40;;;0.20;;
705;SDS011;21234;48.690;9.016;2023-12-20T05:15:40;1.90;;;0.83;;
705;SDS011;21234;48.690;9.016;2023-12-20T05:18:07;0.80;;;0.50;;
705;SDS011;21234;48.690;9.016;2023-12-20T05:20:33;0.93;;;0.30;;
705;SDS011;21234;48.690;9.016;2023-12-20T05:23:00;0.40;;;0.30;;
705;SDS011;21234;48.690;9.016;2023-12-20T05:25:27;0.50;;;0.30;;
705;SDS011;21234;48.690;9.016;2023-12-20T05:27:54;1.77;;;0.33;;
705;SDS011;21234;48.690;9.016;2023-12-20T05:30:22;0.40;;;0.20;;
705;SDS011;21234;48.690;9.016;2023-12-20T05:32:50;1.13;;;0.40;;
705;SDS011;21234;48.690;9.016;2023-12-20T05:35:22;0.77;;;0.40;;
705;SDS011;21234;48.690;9.016;2023-12-20T05:37:49;0.40;;;0.20;;
705;SDS011;21234;48.690;9.016;2023-12-20T05:40:19;0.80;;;0.50;;
705;SDS011;21234;48.690;9.016;2023-12-20T05:42:46;0.77;;;0.40;;
705;SDS011;21234;48.690;9.016;2023-12-20T05:45:14;0.53;;;0.37;;
705;SDS011;21234;48.690;9.016;2023-12-20T05:47:42;0.60;;;0.30;;
705;SDS011;21234;48.690;9.016;2023-12-20T05:50:09;0.87;;;0.40;;
705;SDS011;21234;48.690;9.016;2023-12-20T05:52:35;0.67;;;0.40;;
705;SDS011;21234;48.690;9.016;2023-12-20T05:55:02;0.60;;;0.30;;
705;SDS011;21234;48.690;9.016;2023-12-20T05:57:29;0.97;;;0.43;;
705;SDS011;21234;48.690;9.016;2023-12-20T05:59:56;3.07;;;1.90;;
705;SDS011;21234;48.690;9.016;2023-12-20T06:02:23;2.40;;;1.83;;
705;SDS011;21234;48.690;9.016;2023-12-20T06:04:52;1.80;;;1.70;;
705;SDS011;21234;48.690;9.016;2023-12-20T06:07:20;1.07;;;0.40;;
705;SDS011;21234;48.690;9.016;2023-12-20T06:09:49;2.63;;;0.63;;
705;SDS011;21234;48.690;9.016;2023-12-20T06:12:23;0.50;;;0.33;;
705;SDS011;21234;48.690;9.016;2023-12-20T06:14:53;0.50;;;0.37;;
705;SDS011;21234;48.690;9.016;2023-12-20T06:17:20;0.50;;;0.40;;
705;SDS011;21234;48.690;9.016;2023-12-20T06:19:50;0.80;;;0.60;;
705;SDS011;21234;48.690;9.016;2023-12-20T06:22:34;0.50;;;0.30;;
705;SDS011;21234;48.690;9.016;2023-12-20T06:25:02;1.67;;;0.40;;
705;SDS011;21234;48.690;9.016;2023-12-20T06:27:29;0.57;;;0.40;;
705;SDS011;21234;48.690;9.016;2023-12-20T06:29:57;1.10;;;0.60;;
705;SDS011;21234;48.690;9.016;2023-12-20T06:32:24;0.60;;;0.27;;
705;SDS011;21234;48.690;9.016;2023-12-20T06:34:52;0.60;;;0.50;;
705;SDS011;21234;48.690;9.016;2023-12-20T06:37:21;0.60;;;0.40;;
705;SDS011;21234;48.690;9.016;2023-12-20T06:39:48;0.60;;;0.33;;
705;SDS011;21234;48.690;9.016;2023-12-20T06:42:15;0.97;;;0.57;;
705;SDS011;21234;48.690;9.016;2023-12-20T06:44:42;1.40;;;0.40;;
705;SDS011;21234;48.690;9.016;2023-12-20T06:47:09;1.33;;;0.60;;
705;SDS011;21234;48.690;9.016;2023-12-20T06:49:37;0.90;;;0.50;;
705;SDS011;21234;48.690;9.016;2023-12-20T06:52:04;0.50;;;0.40;;
705;SDS011;21234;48.690;9.016;2023-12-20T06:54:33;0.90;;;0.53;;
705;SDS011;21234;48.690;9.016;2023-12-20T06:57:00;0.77;;;0.47;;
705;SDS011;21234;48.690;9.016;2023-12-20T06:59:28;0.80;;;0.50;;
705;SDS011;21234;48.690;9.016;2023-12-20T07:01:55;0.63;;;0.53;;
705;SDS011;21234;48.690;9.016;2023-12-20T07:04:22;2.70;;;0.60;;
705;SDS011;21234;48.690;9.016;2023-12-20T07:06:49;0.93;;;0.40;;
705;SDS011;21234;48.690;9.016;2023-12-20T07:09:18;1.20;;;0.33;;
705;SDS011;21234;48.690;9.016;2023-12-20T07:11:47;0.80;;;0.47;;
705;SDS011;21234;48.690;9.016;2023-12-20T07:14:14;0.80;;;0.40;;
705;SDS011;21234;48.690;9.016;2023-12-20T07:16:41;1.50;;;0.50;;
705;SDS011;21234;48.690;9.016;2023-12-20T07:19:08;1.23;;;0.60;;
705;SDS011;21234;48.690;9.016;2023-12-20T07:21:35;0.60;;;0.40;;
705;SDS011;21234;48.690;9.016;2023-12-20T07:24:02;0.83;;;0.60;;
705;SDS011;21234;48.690;9.016;2023-12-20T07:26:29;0.67;;;0.67;;
705;SDS011;21234;48.690;9.016;2023-12-20T07:28:57;1.13;;;0.57;;
705;SDS011;21234;48.690;9.016;2023-12-20T07:31:24;4.00;;;0.80;;
705;SDS011;21234;48.690;9.016;2023-12-20T07:33:50;1.70;;;1.60;;
705;SDS011;21234;48.690;9.016;2023-12-20T07:36:17;2.53;;;1.40;;
705;SDS011;21234;48.690;9.016;2023-12-20T07:38:46;1.50;;;1.23;;
705;SDS011;21234;48.690;9.016;2023-12-20T07:41:13;0.97;;;0.87;;
705;SDS011;21234;48.690;9.016;2023-12-20T07:43:41;1.90;;;1.27;;
705;SDS011;21234;48.690;9.016;2023-12-20T07:46:09;1.50;;;0.93;;
705;SDS011;21234;48.690;9.016;2023-12-20T07:48:35;1.57;;;1.47;;
705;SDS011;21234;48.690;9.016;2023-12-20T07:51:02;1.60;;;1.50;;
705;SDS011;21234;48.690;9.016;2023-12-20T07:53:30;1.20;;;1.10;;
705;SDS011;21234;48.690;9.016;2023-12-20T07:55:57;1.30;;;1.20;;
705;SDS011;21234;48.690;9.016;2023-12-20T07:58:24;1.90;;;1.80;;
705;SDS011;21234;48.690;9.016;2023-12-20T08:00:51;1.67;;;1.50;;
705;SDS011;21234;48.690;9.016;2023-12-20T08:03:19;2.30;;;1.90;;
705;SDS011;21234;48.690;9.016;2023-12-20T08:05:45;2.83;;;2.50;;
705;SDS011;21234;48.690;9.016;2023-12-20T08:08:12;2.60;;;1.90;;
705;SDS011;21234;48.690;9.016;2023-12-20T08:10:39;2.37;;;1.67;;
705;SDS011;21234;48.690;9.016;2023-12-20T08:13:05;2.30;;;1.90;;
705;SDS011;21234;48.690;9.016;2023-12-20T08:15:32;2.67;;;1.70;;
705;SDS011;21234;48.690;9.016;2023-12-20T08:17:59;2.53;;;1.77;;
705;SDS011;21234;48.690;9.016;2023-12-20T08:20:27;2.17;;;1.97;;
705;SDS011;21234;48.690;9.016;2023-12-20T08:22:54;2.10;;;1.90;;
705;SDS011;21234;48.690;9.016;2023-12-20T08:25:20;2.50;;;2.10;;
705;SDS011;21234;48.690;9.016;2023-12-20T08:27:47;2.60;;;2.17;;
705;SDS011;21234;48.690;9.016;2023-12-20T08:30:14;5.00;;;2.17;;
705;SDS011;21234;48.690;9.016;2023-12-20T08:32:42;4.90;;;1.90;;
705;SDS011;21234;48.690;9.016;2023-12-20T08:35:12;2.30;;;1.90;;
705;SDS011;21234;48.690;9.016;2023-12-20T08:38:00;2.87;;;2.50;;
705;SDS011;21234;48.690;9.016;2023-12-20T08:40:38;3.07;;;2.03;;
705;SDS011;21234;48.690;9.016;2023-12-20T08:43:16;2.40;;;2.20;;
705;SDS011;21234;48.690;9.016;2023-12-20T08:45:51;3.30;;;2.20;;
705;SDS011;21234;48.690;9.016;2023-12-20T08:48:27;2.53;;;1.90;;
705;SDS011;21234;48.690;9.016;2023-12-20T08:50:54;1.87;;;1.70;;
705;SDS011;21234;48.690;9.016;2023-12-20T08:53:22;1.87;;;1.53;;
705;SDS011;21234;48.690;9.016;2023-12-20T08:55:50;2.63;;;1.80;;
705;SDS011;21234;48.690;9.016;2023-12-20T08:58:18;3.53;;;1.67;;
705;SDS011;21234;48.690;9.016;2023-12-20T09:00:45;2.30;;;1.50;;
705;SDS011;21234;48.690;9.016;2023-12-20T09:03:11;1.90;;;1.13;;
705;SDS011;21234;48.690;9.016;2023-12-20T09:05:38;3.77;;;1.20;;
705;SDS011;21234;48.690;9.016;2023-12-20T09:08:05;2.13;;;1.20;;
705;SDS011;21234;48.690;9.016;2023-12-20T09:10:34;4.40;;;1.30;;
705;SDS011;21234;48.690;9.016;2023-12-20T09:13:00;2.40;;;1.10;;
705;SDS011;21234;48.690;9.016;2023-12-20T09:15:27;3.00;;;1.10;;
705;SDS011;21234;48.690;9.016;2023-12-20T09:17:55;1.07;;;0.87;;
705;SDS011;21234;48.690;9.016;2023-12-20T09:20:22;3.20;;;1.50;;
705;SDS011;21234;48.690;9.016;2023-12-20T09:22:49;2.23;;;1.50;;
705;SDS011;21234;48.690;9.016;2023-12-20T09:25:16;2.80;;;1.50;;
705;SDS011;21234;48.690;9.016;2023-12-20T09:27:44;1.60;;;1.20;;
705;SDS011;21234;48.690;9.016;2023-12-20T09:30:10;4.30;;;1.70;;
705;SDS011;21234;48.690;9.016;2023-12-20T09:32:38;3.53;;;1.10;;
705;SDS011;21234;48.690;9.016;2023-12-20T09:35:05;5.03;;;1.40;;
705;SDS011;21234;48.690;9.016;2023-12-20T09:37:33;1.23;;;1.13;;
705;SDS011;21234;48.690;9.016;2023-12-20T09:40:00;4.57;;;1.27;;
705;SDS011;21234;48.690;9.016;2023-12-20T09:42:29;7.00;;;1.77;;
705;SDS011;21234;48.690;9.016;2023-12-20T09:45:05;2.83;;;2.63;;
705;SDS011;21234;48.690;9.016;2023-12-20T09:47:35;7.23;;;1.30;;
705;SDS011;21234;48.690;9.016;2023-12-20T09:50:02;2.10;;;1.10;;
705;SDS011;21234;48.690;9.016;2023-12-20T09:52:29;2.90;;;1.33;;
705;SDS011;21234;48.690;9.016;2023-12-20T09:54:57;1.63;;;0.97;;
705;SDS011;21234;48.690;9.016;2023-12-20T09:57:24;1.53;;;1.13;;
705;SDS011;21234;48.690;9.016;2023-12-20T09:59:51;2.73;;;1.27;;
705;SDS011;21234;48.690;9.016;2023-12-20T10:02:19;6.57;;;2.77;;
705;SDS011;21234;48.690;9.016;2023-12-20T10:04:52;2.63;;;1.20;;
705;SDS011;21234;48.690;9.016;2023-12-20T10:07:19;1.27;;;1.17;;
705;SDS011;21234;48.690;9.016;2023-12-20T10:09:47;7.50;;;1.73;;
705;SDS011;21234;48.690;9.016;2023-12-20T10:12:14;2.07;;;1.00;;
705;SDS011;21234;48.690;9.016;2023-12-20T10:14:41;2.57;;;1.20;;
705;SDS011;21234;48.690;9.016;2023-12-20T10:17:07;3.67;;;2.30;;
705;SDS011;21234;48.690;9.016;2023-12-20T10:19:37;2.53;;;1.30;;
705;SDS011;21234;48.690;9.016;2023-12-20T10:22:04;3.80;;;1.47;;
705;SDS011;21234;48.690;9.016;2023-12-20T10:24:31;2.00;;;1.00;;
705;SDS011;21234;48.690;9.016;2023-12-20T10:27:01;4.63;;;1.40;;
705;SDS011;21234;48.690;9.016;2023-12-20T10:29:33;3.60;;;1.30;;
705;SDS011;21234;48.690;9.016;2023-12-20T10:32:10;4.00;;;1.27;;
705;SDS011;21234;48.690;9.016;2023-12-20T10:34:50;3.33;;;1.13;;
705;SDS011;21234;48.690;9.016;2023-12-20T10:37:17;2.40;;;1.27;;
705;SDS011;21234;48.690;9.016;2023-12-20T10:39:45;3.90;;;1.13;;
705;SDS011;21234;48.690;9.016;2023-12-20T10:42:16;4.13;;;1.37;;
705;SDS011;21234;48.690;9.016;2023-12-20T10:44:44;2.20;;;1.07;;
705;SDS011;21234;48.690;9.016;2023-12-20T10:47:12;2.10;;;1.10;;
705;SDS011;21234;48.690;9.016;2023-12-20T10:49:41;1.43;;;1.10;;
705;SDS011;21234;48.690;9.016;2023-12-20T10:52:12;1.90;;;1.07;;
705;SDS011;21234;48.690;9.016;2023-12-20T10:54:41;4.70;;;1.50;;
705;SDS011;21234;48.690;9.016;2023-12-20T10:57:08;2.10;;;1.00;;
705;SDS011;21234;48.690;9.016;2023-12-20T10:59:37;2.30;;;0.90;;
705;SDS011;21234;48.690;9.016;2023-12-20T11:02:04;3.40;;;1.60;;
705;SDS011;21234;48.690;9.016;2023-12-20T11:04:36;2.37;;;1.70;;
705;SDS011;21234;48.690;9.016;2023-12-20T11:07:15;2.07;;;0.87;;
705;SDS011;21234;48.690;9.016;2023-12-20T11:09:49;2.20;;;1.27;;
705;SDS011;21234;48.690;9.016;2023-12-20T11:12:29;2.58;;;1.33;;
705;SDS011;21234;48.690;9.016;2023-12-20T11:15:03;1.23;;;1.13;;
705;SDS011;21234;48.690;9.016;2023-12-20T11:17:31;2.20;;;1.30;;
705;SDS011;21234;48.690;9.016;2023-12-20T11:20:05;1.17;;;1.03;;
705;SDS011;21234;48.690;9.016;2023-12-20T11:22:37;0.67;;;0.53;;
705;SDS011;21234;48.690;9.016;2023-12-20T11:25:07;19.77;;;2.00;;
705;SDS011;21234;48.690;9.016;2023-12-20T11:27:35;3.40;;;1.30;;
705;SDS011;21234;48.690;9.016;2023-12-20T11:30:07;4.30;;;1.70;;
705;SDS011;21234;48.690;9.016;2023-12-20T11:32:35;1.93;;;1.20;;
705;SDS011;21234;48.690;9.016;2023-12-20T11:35:16;2.03;;;1.50;;
705;SDS011;21234;48.690;9.016;2023-12-20T11:37:47;2.50;;;1.10;;
705;SDS011;21234;48.690;9.016;2023-12-20T11:40:14;1.57;;;1.07;;
705;SDS011;21234;48.690;9.016;2023-12-20T11:42:43;2.90;;;1.33;;
705;SDS011;21234;48.690;9.016;2023-12-20T11:45:13;1.50;;;1.03;;
705;SDS011;21234;48.690;9.016;2023-12-20T11:47:42;1.90;;;1.20;;
705;SDS011;21234;48.690;9.016;2023-12-20T11:50:11;2.67;;;0.93;;
705;SDS011;21234;48.690;9.016;2023-12-20T11:52:38;1.70;;;1.37;;
705;SDS011;21234;48.690;9.016;2023-12-20T11:55:08;7.50;;;1.20;;
705;SDS011;21234;48.690;9.016;2023-12-20T11:57:38;1.20;;;1.10;;
705;SDS011;21234;48.690;9.016;2023-12-20T12:00:06;2.60;;;1.63;;
705;SDS011;21234;48.690;9.016;2023-12-20T12:02:34;7.00;;;2.13;;
705;SDS011;21234;48.690;9.016;2023-12-20T12:05:01;1.63;;;1.00;;
705;SDS011;21234;48.690;9.016;2023-12-20T12:07:30;3.50;;;1.30;;
705;SDS011;21234;48.690;9.016;2023-12-20T12:09:57;2.37;;;0.93;;
705;SDS011;21234;48.690;9.016;2023-12-20T12:12:26;8.20;;;2.20;;
705;SDS011;21234;48.690;9.016;2023-12-20T12:14:53;3.90;;;2.90;;
705;SDS011;21234;48.690;9.016;2023-12-20T12:17:23;8.70;;;2.80;;
705;SDS011;21234;48.690;9.016;2023-12-20T12:19:50;2.30;;;0.87;;
705;SDS011;21234;48.690;9.016;2023-12-20T12:22:17;1.47;;;1.37;;
705;SDS011;21234;48.690;9.016;2023-12-20T12:24:45;3.73;;;1.10;;
705;SDS011;21234;48.690;9.016;2023-12-20T12:27:14;3.43;;;1.43;;
705;SDS011;21234;48.690;9.016;2023-12-20T12:32:32;7.73;;;1.63;;
705;SDS011;21234;48.690;9.016;2023-12-20T12:34:59;1.80;;;1.10;;
705;SDS011;21234;48.690;9.016;2023-12-20T12:37:28;2.63;;;1.53;;
705;SDS011;21234;48.690;9.016;2023-12-20T12:39:55;8.47;;;2.00;;
705;SDS011;21234;48.690;9.016;2023-12-20T12:42:23;3.23;;;1.03;;
705;SDS011;21234;48.690;9.016;2023-12-20T12:44:53;4.43;;;1.40;;
705;SDS011;21234;48.690;9.016;2023-12-20T12:47:22;3.47;;;1.60;;
705;SDS011;21234;48.690;9.016;2023-12-20T12:49:50;2.80;;;1.50;;
705;SDS011;21234;48.690;9.016;2023-12-20T12:52:18;2.40;;;1.03;;
705;SDS011;21234;48.690;9.016;2023-12-20T12:54:45;2.23;;;1.20;;
705;SDS011;21234;48.690;9.016;2023-12-20T12:57:13;6.33;;;1.00;;
705;SDS011;21234;48.690;9.016;2023-12-20T12:59:40;5.17;;;1.30;;
705;SDS011;21234;48.690;9.016;2023-12-20T13:02:08;1.23;;;0.70;;
705;SDS011;21234;48.690;9.016;2023-12-20T13:04:36;2.50;;;1.03;;
705;SDS011;21234;48.690;9.016;2023-12-20T13:07:04;2.70;;;1.00;;
705;SDS011;21234;48.690;9.016;2023-12-20T13:09:30;2.47;;;0.83;;
705;SDS011;21234;48.690;9.016;2023-12-20T13:11:58;1.60;;;1.00;;
705;SDS011;21234;48.690;9.016;2023-12-20T13:14:28;3.10;;;0.90;;
705;SDS011;21234;48.690;9.016;2023-12-20T13:16:55;2.73;;;1.03;;
705;SDS011;21234;48.690;9.016;2023-12-20T13:19:22;1.33;;;0.97;;
705;SDS011;21234;48.690;9.016;2023-12-20T13:21:51;5.83;;;1.17;;
705;SDS011;21234;48.690;9.016;2023-12-20T13:24:18;4.73;;;1.00;;
705;SDS011;21234;48.690;9.016;2023-12-20T13:26:45;5.67;;;0.90;;
705;SDS011;21234;48.690;9.016;2023-12-20T13:29:12;0.97;;;0.70;;
705;SDS011;21234;48.690;9.016;2023-12-20T13:31:39;3.27;;;0.80;;
705;SDS011;21234;48.690;9.016;2023-12-20T13:34:06;3.50;;;1.00;;
705;SDS011;21234;48.690;9.016;2023-12-20T13:36:34;3.10;;;0.87;;
705;SDS011;21234;48.690;9.016;2023-12-20T13:39:04;6.70;;;1.20;;
705;SDS011;21234;48.690;9.016;2023-12-20T13:41:32;1.90;;;1.27;;
705;SDS011;21234;48.690;9.016;2023-12-20T13:43:59;4.93;;;1.00;;
705;SDS011;21234;48.690;9.016;2023-12-20T13:46:28;4.77;;;1.37;;
705;SDS011;21234;48.690;9.016;2023-12-20T13:48:55;1.57;;;1.33;;
705;SDS011;21234;48.690;9.016;2023-12-20T13:51:22;1.27;;;0.50;;
705;SDS011;21234;48.690;9.016;2023-12-20T13:53:50;1.83;;;1.60;;
705;SDS011;21234;48.690;9.016;2023-12-20T13:56:19;5.90;;;0.80;;
705;SDS011;21234;48.690;9.016;2023-12-20T13:58:48;2.33;;;1.07;;
705;SDS011;21234;48.690;9.016;2023-12-20T14:01:15;1.60;;;0.73;;
705;SDS011;21234;48.690;9.016;2023-12-20T14:03:44;4.03;;;2.27;;
705;SDS011;21234;48.690;9.016;2023-12-20T14:06:13;4.70;;;1.40;;
705;SDS011;21234;48.690;9.016;2023-12-20T14:08:46;2.33;;;1.20;;
705;SDS011;21234;48.690;9.016;2023-12-20T14:11:18;1.43;;;0.97;;
705;SDS011;21234;48.690;9.016;2023-12-20T14:13:48;2.27;;;1.00;;
705;SDS011;21234;48.690;9.016;2023-12-20T14:16:17;1.03;;;0.70;;
705;SDS011;21234;48.690;9.016;2023-12-20T14:18:44;1.57;;;1.10;;
705;SDS011;21234;48.690;9.016;2023-12-20T14:21:10;1.23;;;0.93;;
705;SDS011;21234;48.690;9.016;2023-12-20T14:23:37;3.53;;;0.90;;
705;SDS011;21234;48.690;9.016;2023-12-20T14:26:04;1.07;;;0.80;;
705;SDS011;21234;48.690;9.016;2023-12-20T14:28:32;1.53;;;0.77;;
705;SDS011;21234;48.690;9.016;2023-12-20T14:30:59;3.00;;;1.03;;
705;SDS011;21234;48.690;9.016;2023-12-20T14:33:25;1.43;;;0.70;;
705;SDS011;21234;48.690;9.016;2023-12-20T14:35:52;4.80;;;1.27;;
705;SDS011;21234;48.690;9.016;2023-12-20T14:38:19;3.83;;;1.27;;
705;SDS011;21234;48.690;9.016;2023-12-20T14:40:46;1.33;;;1.10;;
705;SDS011;21234;48.690;9.016;2023-12-20T14:43:12;3.07;;;0.77;;
705;SDS011;21234;48.690;9.016;2023-12-20T14:45:40;2.50;;;0.80;;
705;SDS011;21234;48.690;9.016;2023-12-20T14:48:07;6.10;;;0.93;;
705;SDS011;21234;48.690;9.016;2023-12-20T14:50:34;1.37;;;0.80;;
705;SDS011;21234;48.690;9.016;2023-12-20T14:53:01;2.03;;;0.87;;
705;SDS011;21234;48.690;9.016;2023-12-20T14:55:28;1.13;;;0.93;;
705;SDS011;21234;48.690;9.016;2023-12-20T14:57:55;2.83;;;1.37;;
705;SDS011;21234;48.690;9.016;2023-12-20T15:00:22;4.27;;;1.47;;
705;SDS011;21234;48.690;9.016;2023-12-20T15:02:50;1.63;;;0.70;;
705;SDS011;21234;48.690;9.016;2023-12-20T15:05:18;2.93;;;1.20;;
705;SDS011;21234;48.690;9.016;2023-12-20T15:07:45;2.90;;;1.00;;
705;SDS011;21234;48.690;9.016;2023-12-20T15:10:12;3.47;;;1.43;;
705;SDS011;21234;48.690;9.016;2023-12-20T15:12:40;2.43;;;1.40;;
705;SDS011;21234;48.690;9.016;2023-12-20T15:15:07;1.73;;;1.17;;
705;SDS011;21234;48.690;9.016;2023-12-20T15:17:36;3.77;;;1.43;;
705;SDS011;21234;48.690;9.016;2023-12-20T15:20:04;2.83;;;1.20;;
705;SDS011;21234;48.690;9.016;2023-12-20T15:22:31;2.87;;;1.30;;